Time,TemperatureF,DewpointF,PressureIn,WindDirection,WindDirectionDegrees,WindSpeedMPH,WindSpeedGustMPH,Humidity,HourlyPrecipIn,Conditions,Clouds,dailyrainin,SoftwareType,DateUTC
2013-03-02 00:07:00,34.2,26.5,29.52,ENE,67,4.2,-999.0,73,-99.99,,,0.00,Acu-Link.com,2013-03-02 05:07:00,
2013-03-02 00:22:00,34.0,26.6,29.52,SSE,157,0.0,-999.0,74,-99.99,,,0.00,Acu-Link.com,2013-03-02 05:22:00,
2013-03-02 00:37:00,34.0,26.6,29.51,ENE,67,0.0,-999.0,74,-99.99,,,0.00,Acu-Link.com,2013-03-02 05:37:00,
2013-03-02 00:53:00,33.8,26.4,29.51,SE,135,0.0,-999.0,74,-99.99,,,0.00,Acu-Link.com,2013-03-02 05:53:00,
2013-03-02 01:08:00,33.6,26.5,29.51,SE,135,0.0,-999.0,75,-99.99,,,0.00,Acu-Link.com,2013-03-02 06:08:00,
2013-03-02 01:23:00,33.6,26.5,29.51,West,270,0.0,-999.0,75,-99.99,,,0.00,Acu-Link.com,2013-03-02 06:23:00,
2013-03-02 01:38:00,33.4,26.7,29.51,ENE,67,1.1,-999.0,76,-99.99,,,0.00,Acu-Link.com,2013-03-02 06:38:00,
2013-03-02 01:54:00,33.3,26.6,29.51,North,0,2.7,-999.0,76,-99.99,,,0.00,Acu-Link.com,2013-03-02 06:54:00,
2013-03-02 02:09:00,33.1,26.7,29.51,WNW,292,1.7,-999.0,77,-99.99,,,0.00,Acu-Link.com,2013-03-02 07:09:00,
2013-03-02 02:24:00,32.9,26.5,29.50,West,270,3.7,-999.0,77,-99.99,,,0.00,Acu-Link.com,2013-03-02 07:24:00,
2013-03-02 02:39:00,32.5,26.4,29.50,WSW,247,4.2,-999.0,78,-99.99,,,0.00,Acu-Link.com,2013-03-02 07:39:00,
2013-03-02 02:54:00,32.5,26.7,29.50,North,0,2.2,-999.0,79,-99.99,,,0.00,Acu-Link.com,2013-03-02 07:54:00,
2013-03-02 03:10:00,32.2,26.7,29.50,NNW,337,1.7,-999.0,80,-99.99,,,0.00,Acu-Link.com,2013-03-02 08:10:00,
2013-03-02 03:25:00,32.0,27.1,29.49,West,270,2.2,-999.0,82,-99.99,,,0.00,Acu-Link.com,2013-03-02 08:25:00,
2013-03-02 03:40:00,31.8,26.9,29.49,NE,45,2.2,-999.0,82,-99.99,,,0.00,Acu-Link.com,2013-03-02 08:40:00,
2013-03-02 03:55:00,31.8,26.9,29.49,WNW,292,2.7,-999.0,82,-99.99,,,0.00,Acu-Link.com,2013-03-02 08:55:00,
2013-03-02 04:18:00,31.8,26.9,29.49,SW,225,1.7,-999.0,82,-99.99,,,0.00,Acu-Link.com,2013-03-02 09:18:00,
2013-03-02 04:33:00,31.5,26.9,29.48,WSW,247,2.7,-999.0,83,-99.99,,,0.00,Acu-Link.com,2013-03-02 09:33:00,
2013-03-02 04:48:00,31.3,27.3,29.48,NE,45,0.0,-999.0,85,-99.99,,,0.00,Acu-Link.com,2013-03-02 09:48:00,
2013-03-02 05:03:00,31.1,27.1,29.48,NE,45,1.7,-999.0,85,-99.99,,,0.00,Acu-Link.com,2013-03-02 10:03:00,
2013-03-02 05:19:00,30.9,26.9,29.48,West,270,0.0,-999.0,85,-99.99,,,0.00,Acu-Link.com,2013-03-02 10:19:00,
2013-03-02 05:34:00,30.9,26.9,29.48,NE,45,0.0,-999.0,85,-99.99,,,0.00,Acu-Link.com,2013-03-02 10:34:00,
2013-03-02 05:49:00,30.7,26.7,29.48,NE,45,1.7,-999.0,85,-99.99,,,0.00,Acu-Link.com,2013-03-02 10:49:00,
2013-03-02 06:04:00,30.7,26.7,29.48,NNE,22,2.2,-999.0,85,-99.99,,,0.00,Acu-Link.com,2013-03-02 11:04:00,
2013-03-02 06:20:00,30.7,26.4,29.48,NNE,22,3.7,-999.0,84,-99.99,,,0.00,Acu-Link.com,2013-03-02 11:20:00,
2013-03-02 06:35:00,30.7,26.4,29.48,NW,315,1.1,-999.0,84,-99.99,,,0.00,Acu-Link.com,2013-03-02 11:35:00,
2013-03-02 06:50:00,30.7,26.4,29.48,NE,45,2.7,-999.0,84,-99.99,,,0.00,Acu-Link.com,2013-03-02 11:50:00,
2013-03-02 07:05:00,30.6,26.4,29.49,West,270,3.2,-999.0,84,-99.99,,,0.00,Acu-Link.com,2013-03-02 12:05:00,
2013-03-02 07:20:00,30.7,25.9,29.49,ENE,67,2.7,-999.0,82,-99.99,,,0.00,Acu-Link.com,2013-03-02 12:20:00,
2013-03-02 07:36:00,30.9,26.1,29.49,NW,315,1.7,-999.0,82,-99.99,,,0.00,Acu-Link.com,2013-03-02 12:36:00,
2013-03-02 07:51:00,31.1,26.0,29.49,West,270,2.2,-999.0,81,-99.99,,,0.00,Acu-Link.com,2013-03-02 12:51:00,
2013-03-02 08:06:00,30.9,26.1,29.49,WSW,247,2.7,-999.0,82,-99.99,,,0.00,Acu-Link.com,2013-03-02 13:06:00,
2013-03-02 08:21:00,30.9,25.8,29.50,West,270,0.0,-999.0,81,-99.99,,,0.00,Acu-Link.com,2013-03-02 13:21:00,
2013-03-02 08:37:00,31.5,26.1,29.50,WSW,247,4.2,-999.0,80,-99.99,,,0.00,Acu-Link.com,2013-03-02 13:37:00,
2013-03-02 08:52:00,32.0,25.9,29.50,NNW,337,0.0,-999.0,78,-99.99,,,0.00,Acu-Link.com,2013-03-02 13:52:00,
2013-03-02 09:07:00,32.9,26.2,29.49,ENE,67,4.2,-999.0,76,-99.99,,,0.00,Acu-Link.com,2013-03-02 14:07:00,
2013-03-02 09:23:00,33.4,26.0,29.50,South,180,3.7,-999.0,74,-99.99,,,0.00,Acu-Link.com,2013-03-02 14:23:00,
2013-03-02 09:38:00,34.3,26.2,29.49,West,270,5.3,-999.0,72,-99.99,,,0.00,Acu-Link.com,2013-03-02 14:38:00,
2013-03-02 09:53:00,34.5,25.7,29.49,North,0,3.7,-999.0,70,-99.99,,,0.00,Acu-Link.com,2013-03-02 14:53:00,
2013-03-02 10:09:00,35.2,25.7,29.49,West,270,5.8,-999.0,68,-99.99,,,0.00,Acu-Link.com,2013-03-02 15:09:00,
2013-03-02 10:24:00,36.3,26.4,29.49,WNW,292,4.2,-999.0,67,-99.99,,,0.00,Acu-Link.com,2013-03-02 15:24:00,
2013-03-02 10:39:00,35.6,25.7,29.49,NNE,22,3.7,-999.0,67,-99.99,,,0.01,Acu-Link.com,2013-03-02 15:39:00,
2013-03-02 10:54:00,35.4,25.6,29.50,WNW,292,6.3,-999.0,67,-99.99,,,0.01,Acu-Link.com,2013-03-02 15:54:00,
2013-03-02 11:09:00,37.8,26.4,29.49,ENE,67,2.2,-999.0,63,-99.99,,,0.01,Acu-Link.com,2013-03-02 16:09:00,
2013-03-02 11:24:00,37.2,25.4,29.49,NNE,22,4.7,-999.0,62,-99.99,,,0.01,Acu-Link.com,2013-03-02 16:24:00,
2013-03-02 11:40:00,37.9,24.0,29.49,West,270,6.3,-999.0,57,-99.99,,,0.01,Acu-Link.com,2013-03-02 16:40:00,
2013-03-02 11:55:00,38.3,24.8,29.49,SSW,202,7.3,-999.0,58,-99.99,,,0.01,Acu-Link.com,2013-03-02 16:55:00,
2013-03-02 12:10:00,38.8,24.0,29.49,NW,315,2.7,-999.0,55,-99.99,,,0.01,Acu-Link.com,2013-03-02 17:10:00,
2013-03-02 12:25:00,37.9,24.5,29.48,ENE,67,4.7,-999.0,58,-99.99,,,0.01,Acu-Link.com,2013-03-02 17:25:00,
2013-03-02 12:41:00,37.9,24.5,29.48,WNW,292,3.2,-999.0,58,-99.99,,,0.01,Acu-Link.com,2013-03-02 17:41:00,
2013-03-02 12:56:00,39.7,24.4,29.48,NE,45,4.7,-999.0,54,-99.99,,,0.01,Acu-Link.com,2013-03-02 17:56:00,
2013-03-02 13:11:00,39.6,24.3,29.47,West,270,3.7,-999.0,54,-99.99,,,0.01,Acu-Link.com,2013-03-02 18:11:00,
2013-03-02 13:26:00,39.4,22.8,29.47,NE,45,2.7,-999.0,51,-99.99,,,0.01,Acu-Link.com,2013-03-02 18:26:00,
2013-03-02 13:41:00,38.1,22.9,29.46,West,270,2.2,-999.0,54,-99.99,,,0.01,Acu-Link.com,2013-03-02 18:41:00,
2013-03-02 13:57:00,39.6,22.0,29.46,NE,45,6.8,-999.0,49,-99.99,,,0.01,Acu-Link.com,2013-03-02 18:57:00,
2013-03-02 14:12:00,39.9,21.3,29.45,West,270,4.2,-999.0,47,-99.99,,,0.01,Acu-Link.com,2013-03-02 19:12:00,
2013-03-02 14:27:00,39.7,21.6,29.45,NE,45,4.7,-999.0,48,-99.99,,,0.01,Acu-Link.com,2013-03-02 19:27:00,
2013-03-02 14:43:00,39.6,20.0,29.45,NNE,22,6.3,-999.0,45,-99.99,,,0.01,Acu-Link.com,2013-03-02 19:43:00,
2013-03-02 14:58:00,39.6,21.1,29.45,SW,225,1.7,-999.0,47,-99.99,,,0.01,Acu-Link.com,2013-03-02 19:58:00,
2013-03-02 15:13:00,39.0,20.0,29.45,WNW,292,4.7,-999.0,46,-99.99,,,0.01,Acu-Link.com,2013-03-02 20:13:00,
2013-03-02 15:28:00,39.0,20.0,29.45,NNW,337,3.2,-999.0,46,-99.99,,,0.01,Acu-Link.com,2013-03-02 20:28:00,
2013-03-02 15:43:00,38.7,21.7,29.45,NW,315,1.7,-999.0,50,-99.99,,,0.01,Acu-Link.com,2013-03-02 20:43:00,
2013-03-02 15:58:00,37.9,23.2,29.45,NNW,337,3.7,-999.0,55,-99.99,,,0.01,Acu-Link.com,2013-03-02 20:58:00,
2013-03-02 16:13:00,36.9,23.5,29.47,West,270,4.2,-999.0,58,-99.99,,,0.01,Acu-Link.com,2013-03-02 21:13:00,
2013-03-02 16:28:00,36.3,23.4,29.47,NNE,22,6.8,-999.0,59,-99.99,,,0.01,Acu-Link.com,2013-03-02 21:28:00,
2013-03-02 16:44:00,35.8,23.7,29.48,NW,315,4.2,-999.0,61,-99.99,,,0.01,Acu-Link.com,2013-03-02 21:44:00,
2013-03-02 16:59:00,35.8,24.5,29.48,NE,45,3.2,-999.0,63,-99.99,,,0.01,Acu-Link.com,2013-03-02 21:59:00,
2013-03-02 17:14:00,35.1,23.8,29.48,West,270,5.8,-999.0,63,-99.99,,,0.01,Acu-Link.com,2013-03-02 22:14:00,
2013-03-02 17:29:00,34.5,24.0,29.48,SSE,157,2.7,-999.0,65,-99.99,,,0.01,Acu-Link.com,2013-03-02 22:29:00,
2013-03-02 17:44:00,33.6,23.5,29.49,North,0,5.3,-999.0,66,-99.99,,,0.01,Acu-Link.com,2013-03-02 22:44:00,
2013-03-02 17:59:00,33.4,24.0,29.50,WNW,292,3.7,-999.0,68,-99.99,,,0.01,Acu-Link.com,2013-03-02 22:59:00,
2013-03-02 18:15:00,32.5,23.1,29.50,WNW,292,3.2,-999.0,68,-99.99,,,0.01,Acu-Link.com,2013-03-02 23:15:00,
2013-03-02 18:30:00,32.0,23.0,29.50,NNW,337,2.7,-999.0,69,-99.99,,,0.01,Acu-Link.com,2013-03-02 23:30:00,
2013-03-02 18:45:00,31.8,22.8,29.51,SW,225,3.2,-999.0,69,-99.99,,,0.01,Acu-Link.com,2013-03-02 23:45:00,
2013-03-02 19:00:00,31.5,22.5,29.52,West,270,3.2,-999.0,69,-99.99,,,0.01,Acu-Link.com,2013-03-03 00:00:00,
2013-03-02 19:15:00,31.1,22.5,29.52,ESE,112,3.7,-999.0,70,-99.99,,,0.01,Acu-Link.com,2013-03-03 00:15:00,
2013-03-02 19:31:00,30.7,22.4,29.53,WSW,247,6.3,-999.0,71,-99.99,,,0.01,Acu-Link.com,2013-03-03 00:31:00,
2013-03-02 19:46:00,30.6,22.3,29.53,NNE,22,4.2,-999.0,71,-99.99,,,0.01,Acu-Link.com,2013-03-03 00:46:00,
2013-03-02 20:01:00,30.2,21.9,29.53,NNW,337,3.2,-999.0,71,-99.99,,,0.01,Acu-Link.com,2013-03-03 01:01:00,
2013-03-02 20:16:00,29.8,21.6,29.53,ENE,67,1.7,-999.0,71,-99.99,,,0.01,Acu-Link.com,2013-03-03 01:16:00,
2013-03-02 20:31:00,29.5,21.3,29.54,West,270,3.7,-999.0,71,-99.99,,,0.01,Acu-Link.com,2013-03-03 01:31:00,
2013-03-02 20:46:00,29.3,21.4,29.54,WNW,292,3.7,-999.0,72,-99.99,,,0.01,Acu-Link.com,2013-03-03 01:46:00,
2013-03-02 21:01:00,29.1,20.9,29.54,West,270,3.2,-999.0,71,-99.99,,,0.01,Acu-Link.com,2013-03-03 02:01:00,
2013-03-02 21:17:00,28.9,20.7,29.55,East,90,5.3,-999.0,71,-99.99,,,0.01,Acu-Link.com,2013-03-03 02:17:00,
2013-03-02 21:32:00,28.4,20.2,29.54,West,270,4.2,-999.0,71,-99.99,,,0.01,Acu-Link.com,2013-03-03 02:32:00,
2013-03-02 21:47:00,28.0,20.2,29.54,East,90,4.7,-999.0,72,-99.99,,,0.01,Acu-Link.com,2013-03-03 02:47:00,
2013-03-02 22:03:00,27.7,19.9,29.54,North,0,4.2,-999.0,72,-99.99,,,0.01,Acu-Link.com,2013-03-03 03:03:00,
2013-03-02 22:18:00,27.7,19.5,29.54,NE,45,3.2,-999.0,71,-99.99,,,0.01,Acu-Link.com,2013-03-03 03:18:00,
2013-03-02 22:33:00,27.5,19.0,29.54,NE,45,2.7,-999.0,70,-99.99,,,0.01,Acu-Link.com,2013-03-03 03:33:00,
2013-03-02 22:49:00,27.3,18.8,29.54,NNW,337,5.3,-999.0,70,-99.99,,,0.01,Acu-Link.com,2013-03-03 03:49:00,
2013-03-02 23:04:00,27.1,19.0,29.54,ESE,112,5.8,-999.0,71,-99.99,,,0.01,Acu-Link.com,2013-03-03 04:04:00,
2013-03-02 23:19:00,27.0,19.2,29.54,WSW,247,2.7,-999.0,72,-99.99,,,0.01,Acu-Link.com,2013-03-03 04:19:00,
2013-03-02 23:34:00,27.0,18.9,29.53,SSW,202,6.8,-999.0,71,-99.99,,,0.01,Acu-Link.com,2013-03-03 04:34:00,
2013-03-02 23:49:00,26.8,18.7,29.53,SSE,157,5.8,-999.0,71,-99.99,,,0.01,Acu-Link.com,2013-03-03 04:49:00,